Aviation Digital Data Service (ADDS)

Output produced by METARs form (1709 UTC 24 April 2017)
found at http://www.aviationweather.gov/adds/metars/
 
UGKO 241700Z 25010KT 9999 SCT045 10/04 Q1022 R25/09//70 NOSIG
TAF UGKO 241700Z 2418/2518 25006KT 8000 SCT020 OVC050 TX12/2512Z TN06/2502Z 
     TEMPO 2420/2504 25016KT 2500 SHRA SCT005 BKN014CB 
     TEMPO 2504/2512 26016KT 4000 SHRA SCT007 BKN016CB 
     BECMG 2514/2516 CAVOK
       
UGSB 241700Z 29003KT 260V020 9999 SCT030 BKN085 11/07 Q1025 R13/70D NOSIG
TAF UGSB 241700Z 2418/2518 28010KT 9999 SCT020 BKN040 TX13/2512Z TN07/2501Z 
     TEMPO 2418/2504 24020KT 5000 SHRA SCT010 BKN020CB 
     PROB40 
     TEMPO 2504/2509 5000 TSRA BKN013CB
       
UGTB 241700Z 31025G35KT CAVOK 11/M00 Q1020 R31L/CLRD70 NOSIG
TAF UGTB 241700Z 2418/2518 32023KT CAVOK TX15/2512Z TN06/2503Z 
     PROB30 
     TEMPO 2421/2502 SHRA BKN045CB 
     TEMPO 2422/2506 32027G38KT 
     TEMPO 2506/2515 32030G45KT